Terminal Aerodrome Forecast
Issued by NWS

Current Version | Previous Version | Text Only | Print | Product List | Glossary Off
Versions: 1 2 3 4 5 6 7 8 9 10 11 12 13 14 15 16 17 18 19

266
FTUS41 KILN 080539
TAFLCK
TAF
KLCK 080539Z 0806/0906 29010KT P6SM BKN090
     FM081200 27012G22KT P6SM SCT025 SCT100
     FM081800 27014G24KT P6SM BKN028
     FM090300 28012G20KT P6SM OVC020=

USA.gov is the U.S. government's official web portal to all federal, state and local government web resources and services.